Time;durP1;ratioP1;P1;durP2;ratioP2;P2;SDS_P1;SDS_P2;PMS_P1;PMS_P2;Temp;Humidity;BMP_temperature;BMP_pressure;BME280_temperature;BME280_humidity;BME280_pressure;Samples;Min_cycle;Max_cycle;Signal;HPM_P1;HPM_P2
2023/02/19 00:01:06;;;;;;;;;;;;;;;;;;4994419;28;7529;-68
2023/02/19 00:03:31;;;;;;;;;;;;;;;;;;5006998;28;7576;-68
2023/02/19 00:05:56;;;;;;;;;;;;;;;;;;4991434;28;7534;-69
2023/02/19 00:08:21;;;;;;;;;;;;;;;;;;4991595;28;7518;-68
2023/02/19 00:10:47;;;;;;;;;;;;;;;;;;4991276;28;7530;-67
2023/02/19 00:13:12;;;;;;;;;;;;;;;;;;4991179;28;7578;-67
2023/02/19 00:15:37;;;;;;;;;;;;;;;;;;5006081;28;7518;-69
2023/02/19 00:18:02;;;;;;;;;;;;;;;;;;4991304;28;7533;-68
2023/02/19 00:20:27;;;;;;;;;;;;;;;;;;5006403;28;7541;-68
2023/02/19 00:22:52;;;;;;;;;;;;;;;;;;5006444;28;7522;-68
2023/02/19 00:25:18;;;;;;;;;;;;;;;;;;5006153;28;7533;-68
2023/02/19 00:27:43;;;;;;;;;;;;;;;;;;4991138;28;7617;-68
2023/02/19 00:30:08;;;;;;;;;;;;;;;;;;4991017;28;7522;-68
2023/02/19 00:32:33;;;;;;;;;;;;;;;;;;5006420;28;7584;-68
2023/02/19 08:25:09;;;;;;;;;17.75;12.25;;;;;;;;5126374;27;13474;-68
2023/02/19 15:02:31;;;;;;;;;11.50;11.00;;;;;;;;5083196;27;13388;-71
2023/02/19 15:04:57;;;;;;;;;16.25;11.25;;;;;;;;5086327;28;12402;-70
2023/02/19 15:07:28;;;;;;;;;15.75;14.25;;;;;;;;5085245;28;11626;-70
2023/02/19 15:09:56;;;;;;;;;16.25;12.75;;;;;;;;5031397;28;9925;-67
2023/02/19 15:12:27;;;;;;;;;10.00;10.00;;;;;;;;5004858;28;11581;-69
2023/02/19 15:14:55;;;;;;;;;15.75;13.00;;;;;;;;5006148;28;11506;-69
2023/02/19 15:17:28;;;;;;;;;14.25;10.50;;;;;;;;5006300;28;11641;-69
2023/02/19 15:19:54;;;;;;;;;11.00;11.00;;;;;;;;4986405;28;11693;-69
2023/02/19 15:22:21;;;;;;;;;12.00;9.75;;;;;;;;4986629;28;11632;-69
2023/02/19 15:24:46;;;;;;;;;12.25;11.00;;;;;;;;4985217;28;12377;-69
2023/02/19 15:27:19;;;;;;;;;13.00;9.25;;;;;;;;4986291;28;11568;-69
2023/02/19 15:29:46;;;;;;;;;12.00;11.25;;;;;;;;4986625;28;8845;-69
2023/02/19 15:32:18;;;;;;;;;12.75;10.50;;;;;;;;4986300;28;11549;-69
2023/02/19 15:34:52;;;;;;;;;10.25;10.00;;;;;;;;4986271;28;11647;-68
2023/02/19 15:37:17;;;;;;;;;12.00;10.75;;;;;;;;4985236;28;11533;-69
2023/02/19 15:39:45;;;;;;;;;11.00;7.75;;;;;;;;4986543;28;11572;-69
2023/02/19 15:42:16;;;;;;;;;16.00;12.00;;;;;;;;4986354;28;8831;-70
2023/02/19 15:44:52;;;;;;;;;12.50;12.00;;;;;;;;4986527;28;11569;-70
2023/02/19 15:47:18;;;;;;;;;15.00;15.00;;;;;;;;4984535;28;11619;-68
2023/02/19 15:49:49;;;;;;;;;11.00;11.00;;;;;;;;5004646;28;11655;-69
2023/02/19 15:52:23;;;;;;;;;13.50;11.50;;;;;;;;5005824;28;9520;-69
2023/02/19 15:54:52;;;;;;;;;10.50;7.75;;;;;;;;5020533;28;11554;-69
2023/02/19 15:57:21;;;;;;;;;9.25;7.50;;;;;;;;5005524;28;11587;-69
2023/02/19 15:59:54;;;;;;;;;14.75;11.75;;;;;;;;5005644;28;12287;-68
2023/02/19 16:02:20;;;;;;;;;12.50;11.75;;;;;;;;5005326;28;12376;-69
2023/02/19 16:04:46;;;;;;;;;11.00;9.50;;;;;;;;5020258;28;11561;-70
2023/02/19 16:07:32;;;;;;;;;12.00;8.75;;;;;;;;5020739;28;8840;-69
2023/02/19 16:10:05;;;;;;;;;11.00;11.00;;;;;;;;5005802;28;11648;-69
2023/02/19 16:12:31;;;;;;;;;12.75;11.00;;;;;;;;4998810;28;11554;-69
2023/02/19 16:14:56;;;;;;;;;12.25;9.25;;;;;;;;4992442;28;11568;-69
2023/02/19 16:17:26;;;;;;;;;11.50;10.50;;;;;;;;4992406;28;8800;-70
2023/02/19 16:19:57;;;;;;;;;10.25;9.25;;;;;;;;4992352;28;8924;-69
2023/02/19 16:22:31;;;;;;;;;10.25;10.25;;;;;;;;4991923;28;11516;-70
2023/02/19 16:24:58;;;;;;;;;11.50;10.75;;;;;;;;4991778;28;11623;-68
2023/02/19 16:27:32;;;;;;;;;12.25;10.75;;;;;;;;4992154;28;11549;-68
2023/02/19 16:29:59;;;;;;;;;12.50;11.75;;;;;;;;4992308;28;11505;-72
2023/02/19 16:32:27;;;;;;;;;11.75;11.75;;;;;;;;5006909;28;11655;-69
2023/02/19 16:34:55;;;;;;;;;16.50;11.75;;;;;;;;4991510;28;11543;-74
2023/02/19 16:37:37;;;;;;;;;10.50;9.00;;;;;;;;4991959;28;11569;-71
2023/02/19 16:40:08;;;;;;;;;9.00;7.00;;;;;;;;4987997;28;11630;-70
2023/02/19 16:42:54;;;;;;;;;10.75;9.25;;;;;;;;4991057;28;11502;-70
2023/02/19 16:45:19;;;;;;;;;14.75;11.00;;;;;;;;4991610;28;11535;-70
2023/02/19 16:47:49;;;;;;;;;12.00;10.75;;;;;;;;5006560;28;11569;-71
2023/02/19 16:50:16;;;;;;;;;12.00;10.75;;;;;;;;5006373;28;8978;-70
2023/02/19 16:52:55;;;;;;;;;10.00;9.50;;;;;;;;4990118;28;11575;-70
2023/02/19 16:55:21;;;;;;;;;14.75;11.50;;;;;;;;5006453;28;11576;-72
2023/02/19 16:57:46;;;;;;;;;15.00;12.50;;;;;;;;4991100;28;11654;-72
2023/02/19 17:00:19;;;;;;;;;15.00;14.00;;;;;;;;4990884;28;9531;-70
2023/02/19 17:02:45;;;;;;;;;13.00;10.75;;;;;;;;4991257;28;9584;-72
2023/02/19 17:05:10;;;;;;;;;13.50;13.50;;;;;;;;4992237;28;11633;-70
2023/02/19 17:07:36;;;;;;;;;13.75;11.50;;;;;;;;4993034;28;11564;-70
2023/02/19 17:10:01;;;;;;;;;10.50;9.25;;;;;;;;4991221;28;8833;-71
2023/02/19 17:12:26;;;;;;;;;12.25;9.75;;;;;;;;4991311;28;8801;-70
2023/02/19 17:14:51;;;;;;;;;12.00;12.00;;;;;;;;4991099;28;8817;-69
2023/02/19 17:17:17;;;;;;;;;16.00;12.00;;;;;;;;4991100;28;8843;-70
2023/02/19 17:19:42;;;;;;;;;11.50;11.25;;;;;;;;4990640;28;8975;-70
2023/02/19 17:22:07;;;;;;;;;11.50;11.00;;;;;;;;4990893;28;8898;-71
2023/02/19 17:24:33;;;;;;;;;12.75;10.25;;;;;;;;4990018;28;9650;-70
2023/02/19 17:26:58;;;;;;;;;16.50;11.50;;;;;;;;4990738;28;8817;-70
2023/02/19 17:29:23;;;;;;;;;14.25;13.00;;;;;;;;5002152;28;8873;-70
2023/02/19 17:31:49;;;;;;;;;12.75;12.75;;;;;;;;4989328;28;8832;-70
2023/02/19 17:34:14;;;;;;;;;13.75;12.25;;;;;;;;4990699;28;8910;-70
2023/02/19 17:36:42;;;;;;;;;10.50;10.00;;;;;;;;4989138;28;8821;-70
2023/02/19 17:39:13;;;;;;;;;11.75;11.25;;;;;;;;4988804;28;8963;-71
2023/02/19 17:41:39;;;;;;;;;13.50;10.00;;;;;;;;4990633;28;11554;-71
2023/02/19 17:44:04;;;;;;;;;9.00;9.00;;;;;;;;4989770;28;11575;-72
2023/02/19 17:46:30;;;;;;;;;10.00;9.25;;;;;;;;4990506;28;8820;-71
2023/02/19 17:48:55;;;;;;;;;11.00;9.00;;;;;;;;5005235;28;8829;-72
2023/02/19 17:51:21;;;;;;;;;10.50;10.50;;;;;;;;4990444;28;9017;-72
2023/02/19 17:53:46;;;;;;;;;13.50;11.50;;;;;;;;4990140;28;8821;-70
2023/02/19 17:56:19;;;;;;;;;13.00;10.00;;;;;;;;4989920;28;8832;-71
2023/02/19 17:58:44;;;;;;;;;14.00;12.25;;;;;;;;4990339;28;8851;-72
2023/02/19 18:01:10;;;;;;;;;13.00;10.25;;;;;;;;4989991;28;11027;-71
2023/02/19 18:03:35;;;;;;;;;12.50;10.25;;;;;;;;4990243;28;8820;-71
2023/02/19 18:06:01;;;;;;;;;10.75;10.75;;;;;;;;4990103;28;8797;-69
2023/02/19 18:08:26;;;;;;;;;12.00;10.00;;;;;;;;5005021;28;9551;-73
2023/02/19 18:10:51;;;;;;;;;14.00;12.50;;;;;;;;4990327;28;8843;-71
2023/02/19 18:13:17;;;;;;;;;13.50;10.25;;;;;;;;5004932;28;9600;-71
2023/02/19 18:15:42;;;;;;;;;6.00;6.00;;;;;;;;4989926;28;8923;-72
2023/02/19 18:18:08;;;;;;;;;13.00;9.50;;;;;;;;5005149;28;8832;-72
2023/02/19 18:20:33;;;;;;;;;12.00;7.50;;;;;;;;4989979;28;8832;-70
2023/02/19 18:22:59;;;;;;;;;12.25;6.25;;;;;;;;4989796;28;11510;-71
2023/02/19 18:25:24;;;;;;;;;11.50;9.75;;;;;;;;4990263;28;8812;-71
2023/02/19 18:27:49;;;;;;;;;9.50;7.50;;;;;;;;4989977;28;8911;-70
2023/02/19 18:30:17;;;;;;;;;8.00;8.00;;;;;;;;4989563;28;8821;-73
2023/02/19 18:32:43;;;;;;;;;7.25;6.75;;;;;;;;4989667;28;8821;-74
2023/02/19 18:35:08;;;;;;;;;12.00;9.25;;;;;;;;4989287;28;11540;-73
2023/02/19 18:37:34;;;;;;;;;11.50;11.50;;;;;;;;4989545;28;8821;-72
2023/02/19 18:40:00;;;;;;;;;10.75;9.00;;;;;;;;4983681;28;8852;-73
2023/02/19 18:42:25;;;;;;;;;11.50;10.00;;;;;;;;4989492;28;8817;-73
2023/02/19 18:44:51;;;;;;;;;13.00;13.00;;;;;;;;4991835;23;8911;-69
2023/02/19 18:47:17;;;;;;;;;13.75;11.00;;;;;;;;4932071;29;8853;-69
2023/02/19 18:49:46;;;;;;;;;10.50;10.25;;;;;;;;4949367;28;11594;-68
2023/02/19 18:52:12;;;;;;;;;17.00;11.50;;;;;;;;4950919;28;8972;-69
2023/02/19 18:54:37;;;;;;;;;12.00;10.75;;;;;;;;4949703;28;11797;-69
2023/02/19 18:57:03;;;;;;;;;13.00;12.00;;;;;;;;4951522;28;8795;-68
2023/02/19 18:59:31;;;;;;;;;15.00;14.25;;;;;;;;4951458;28;8804;-69
2023/02/19 19:01:57;;;;;;;;;18.25;16.75;;;;;;;;4951144;28;9589;-68
2023/02/19 19:04:22;;;;;;;;;14.00;14.00;;;;;;;;4949563;29;11563;-67
2023/02/19 19:06:50;;;;;;;;;14.75;14.75;;;;;;;;4951198;28;9934;-69
2023/02/19 19:09:16;;;;;;;;;22.00;17.50;;;;;;;;4950634;28;8894;-68
2023/02/19 19:11:43;;;;;;;;;18.25;17.00;;;;;;;;4940192;28;11602;-69
2023/02/19 19:14:17;;;;;;;;;12.00;12.00;;;;;;;;4931932;29;8953;-68
2023/02/19 19:16:43;;;;;;;;;11.50;11.50;;;;;;;;4930678;29;11666;-69
2023/02/19 19:19:15;;;;;;;;;14.00;14.00;;;;;;;;4937224;29;11700;-70
2023/02/19 19:21:41;;;;;;;;;15.50;11.00;;;;;;;;4932660;29;11597;-73
2023/02/19 19:24:06;;;;;;;;;18.00;12.75;;;;;;;;4933859;29;11569;-71
2023/02/19 19:26:32;;;;;;;;;12.75;12.00;;;;;;;;4932573;29;8798;-69
2023/02/19 19:28:58;;;;;;;;;14.75;13.50;;;;;;;;4931970;29;8835;-69
2023/02/19 19:31:23;;;;;;;;;12.50;11.25;;;;;;;;4915179;29;8900;-70
2023/02/19 19:33:49;;;;;;;;;19.75;15.50;;;;;;;;4921528;29;9578;-68
2023/02/19 19:36:20;;;;;;;;;16.00;14.75;;;;;;;;4931861;29;8803;-71
2023/02/19 19:38:46;;;;;;;;;14.25;13.75;;;;;;;;4931572;29;8825;-69
2023/02/19 19:41:13;;;;;;;;;16.00;15.00;;;;;;;;4930115;29;11580;-69
2023/02/19 19:43:38;;;;;;;;;18.00;11.00;;;;;;;;4928738;29;8950;-68
2023/02/19 19:46:04;;;;;;;;;15.50;14.50;;;;;;;;4930278;29;12356;-68
2023/02/19 19:48:30;;;;;;;;;14.50;12.50;;;;;;;;4941937;28;8878;-70
2023/02/19 19:50:55;;;;;;;;;15.00;13.00;;;;;;;;4952519;28;8920;-69
2023/02/19 19:53:24;;;;;;;;;17.00;16.00;;;;;;;;4937461;28;8855;-67
2023/02/19 19:55:50;;;;;;;;;16.50;14.75;;;;;;;;4930735;29;8901;-70
2023/02/19 19:58:19;;;;;;;;;15.50;14.25;;;;;;;;4915827;29;11569;-68
2023/02/19 20:00:45;;;;;;;;;13.50;13.50;;;;;;;;4919248;29;8855;-71
2023/02/19 20:03:10;;;;;;;;;15.25;13.00;;;;;;;;4926976;28;11598;-70
2023/02/19 20:05:35;;;;;;;;;19.50;15.50;;;;;;;;4924144;29;8879;-69
2023/02/19 20:08:00;;;;;;;;;15.50;14.00;;;;;;;;4938787;29;8833;-71
2023/02/19 20:10:26;;;;;;;;;14.75;13.25;;;;;;;;4925611;29;8904;-71
2023/02/19 20:12:51;;;;;;;;;16.50;13.00;;;;;;;;4921271;28;8915;-70
2023/02/19 20:15:20;;;;;;;;;4.50;1.00;;;;;;;;4924211;29;8834;-71
2023/02/19 20:17:46;;;;;;;;;11.00;11.00;;;;;;;;4929989;29;8844;-69
2023/02/19 20:20:11;;;;;;;;;14.50;11.25;;;;;;;;4933245;29;11679;-68
2023/02/19 20:22:38;;;;;;;;;15.25;14.75;;;;;;;;4931412;28;8964;-69
2023/02/19 20:25:04;;;;;;;;;18.00;15.00;;;;;;;;4933318;29;8854;-68
2023/02/19 20:27:29;;;;;;;;;18.75;15.25;;;;;;;;4933804;29;11659;-67
2023/02/19 20:29:54;;;;;;;;;18.25;15.75;;;;;;;;4944526;28;11588;-66
2023/02/19 20:32:19;;;;;;;;;18.50;16.00;;;;;;;;4933399;29;8850;-66
2023/02/19 20:34:45;;;;;;;;;13.00;12.00;;;;;;;;4925128;29;8853;-67
2023/02/19 20:37:11;;;;;;;;;15.50;15.50;;;;;;;;4923999;29;8822;-70
2023/02/19 20:39:36;;;;;;;;;16.50;16.00;;;;;;;;4922656;29;11585;-68
2023/02/19 20:42:02;;;;;;;;;15.25;12.25;;;;;;;;4933586;29;8917;-69
2023/02/19 20:44:28;;;;;;;;;20.75;19.00;;;;;;;;4929864;29;8966;-67
2023/02/19 20:46:54;;;;;;;;;17.75;16.00;;;;;;;;4918789;29;8825;-68
2023/02/19 20:49:20;;;;;;;;;11.25;11.00;;;;;;;;4928105;29;8933;-69
2023/02/19 20:51:46;;;;;;;;;18.75;13.00;;;;;;;;4933083;29;11693;-68
2023/02/19 20:54:11;;;;;;;;;18.25;14.25;;;;;;;;4930067;29;11705;-68
2023/02/19 20:56:42;;;;;;;;;15.00;12.00;;;;;;;;4933696;29;9041;-68
2023/02/19 20:59:07;;;;;;;;;19.00;19.00;;;;;;;;4933135;29;8790;-69
2023/02/19 21:01:32;;;;;;;;;21.50;15.50;;;;;;;;4932575;29;11584;-67
2023/02/19 21:03:58;;;;;;;;;26.25;18.25;;;;;;;;4934033;29;8807;-68
2023/02/19 21:06:23;;;;;;;;;19.00;15.75;;;;;;;;4934543;29;8791;-68
2023/02/19 21:08:48;;;;;;;;;15.25;12.00;;;;;;;;4934198;29;8838;-68
2023/02/19 21:11:14;;;;;;;;;21.25;18.75;;;;;;;;4933652;29;8973;-67
2023/02/19 21:13:41;;;;;;;;;18.00;18.00;;;;;;;;4934561;29;8831;-68
2023/02/19 21:16:06;;;;;;;;;19.75;15.00;;;;;;;;4934246;29;8813;-68
2023/02/19 21:18:31;;;;;;;;;17.50;15.75;;;;;;;;4936859;29;11695;-67
2023/02/19 21:20:56;;;;;;;;;15.00;15.00;;;;;;;;4933903;29;8830;-68
2023/02/19 21:23:22;;;;;;;;;18.50;15.50;;;;;;;;4933227;29;8819;-68
2023/02/19 21:25:48;;;;;;;;;21.25;18.75;;;;;;;;4931217;29;8810;-67
2023/02/19 21:28:13;;;;;;;;;20.75;19.00;;;;;;;;4932640;29;8830;-68
2023/02/19 21:30:39;;;;;;;;;16.50;16.50;;;;;;;;4932476;29;8898;-68
2023/02/19 21:33:04;;;;;;;;;18.25;17.50;;;;;;;;4932430;29;8802;-69
2023/02/19 21:35:29;;;;;;;;;18.75;18.50;;;;;;;;4928195;29;9596;-69
2023/02/19 21:37:55;;;;;;;;;22.75;18.00;;;;;;;;4928269;29;8913;-69
2023/02/19 21:40:22;;;;;;;;;21.50;18.00;;;;;;;;4932241;29;8857;-67
2023/02/19 21:42:47;;;;;;;;;20.00;18.25;;;;;;;;4931024;29;8889;-69
2023/02/19 21:45:13;;;;;;;;;19.00;15.00;;;;;;;;4930368;29;11592;-67
2023/02/19 21:47:38;;;;;;;;;21.25;20.50;;;;;;;;4928907;29;8958;-68
2023/02/19 21:50:04;;;;;;;;;22.00;18.75;;;;;;;;4931261;29;8930;-67
2023/02/19 21:52:29;;;;;;;;;22.00;19.00;;;;;;;;4931190;29;8936;-68
2023/02/19 21:54:55;;;;;;;;;22.25;18.75;;;;;;;;4931534;29;8909;-67
2023/02/19 21:57:20;;;;;;;;;18.75;18.75;;;;;;;;4931367;29;8916;-67
2023/02/19 21:59:46;;;;;;;;;22.25;18.25;;;;;;;;4932475;29;8815;-68
2023/02/19 22:02:11;;;;;;;;;15.00;15.00;;;;;;;;4930934;29;8838;-68
2023/02/19 22:04:36;;;;;;;;;23.00;16.75;;;;;;;;4932473;29;8795;-68
2023/02/19 22:07:02;;;;;;;;;19.25;15.00;;;;;;;;4932695;29;8918;-68
2023/02/19 22:09:27;;;;;;;;;19.75;17.25;;;;;;;;4932333;29;8893;-67
2023/02/19 22:11:52;;;;;;;;;19.25;19.00;;;;;;;;4931624;29;8858;-68
2023/02/19 22:14:17;;;;;;;;;19.25;16.75;;;;;;;;4932266;29;9621;-68
2023/02/19 22:16:43;;;;;;;;;20.25;15.50;;;;;;;;4932597;29;9509;-67
2023/02/19 22:19:08;;;;;;;;;23.50;19.00;;;;;;;;4932383;29;8854;-68
2023/02/19 22:21:34;;;;;;;;;20.00;20.00;;;;;;;;4932367;29;8877;-68
2023/02/19 22:24:00;;;;;;;;;20.00;19.00;;;;;;;;4932164;29;8810;-67
2023/02/19 22:26:30;;;;;;;;;15.75;15.75;;;;;;;;4932289;29;8794;-68
2023/02/19 22:28:56;;;;;;;;;20.75;17.75;;;;;;;;4931883;29;11657;-68
2023/02/19 22:31:23;;;;;;;;;18.25;16.00;;;;;;;;4931845;29;12405;-67
2023/02/19 22:33:48;;;;;;;;;19.00;18.50;;;;;;;;4931909;29;11532;-68
2023/02/19 22:36:18;;;;;;;;;28.00;21.00;;;;;;;;4931957;29;11580;-67
2023/02/19 22:38:43;;;;;;;;;25.50;20.50;;;;;;;;4932080;29;8778;-68
2023/02/19 22:41:09;;;;;;;;;17.25;17.25;;;;;;;;4931781;29;11617;-67
2023/02/19 22:43:35;;;;;;;;;36.75;23.75;;;;;;;;4931800;29;8791;-67
2023/02/19 22:46:00;;;;;;;;;25.25;22.75;;;;;;;;4932328;29;8810;-67
2023/02/19 22:48:25;;;;;;;;;24.75;24.75;;;;;;;;4931811;29;9536;-67
2023/02/19 22:50:51;;;;;;;;;18.00;18.00;;;;;;;;4931769;29;8852;-67
2023/02/19 22:53:16;;;;;;;;;24.00;20.50;;;;;;;;4932078;29;8833;-68
2023/02/19 22:55:42;;;;;;;;;23.00;19.75;;;;;;;;4932014;29;8949;-68
2023/02/19 22:58:07;;;;;;;;;22.00;20.50;;;;;;;;4932062;29;8807;-67
2023/02/19 23:00:32;;;;;;;;;24.00;20.00;;;;;;;;4931640;29;8807;-67
2023/02/19 23:02:58;;;;;;;;;23.25;20.00;;;;;;;;4932023;29;8929;-68
2023/02/19 23:05:24;;;;;;;;;26.25;24.50;;;;;;;;4931772;29;8799;-68
2023/02/19 23:07:49;;;;;;;;;19.25;19.25;;;;;;;;4930700;29;8854;-68
2023/02/19 23:10:15;;;;;;;;;17.75;17.75;;;;;;;;4931606;29;9505;-67
2023/02/19 23:12:40;;;;;;;;;22.75;18.75;;;;;;;;4931512;29;8799;-67
2023/02/19 23:15:06;;;;;;;;;19.25;18.25;;;;;;;;4931829;29;8881;-68
2023/02/19 23:17:31;;;;;;;;;22.25;18.50;;;;;;;;4931941;29;8799;-67
2023/02/19 23:19:57;;;;;;;;;24.00;19.00;;;;;;;;4931617;29;11565;-67
2023/02/19 23:22:22;;;;;;;;;24.00;22.25;;;;;;;;4932519;29;8810;-68
2023/02/19 23:24:48;;;;;;;;;24.75;21.50;;;;;;;;4935798;29;8791;-68
2023/02/19 23:27:13;;;;;;;;;18.75;18.75;;;;;;;;4935607;29;8905;-69
2023/02/19 23:29:38;;;;;;;;;22.25;18.50;;;;;;;;4935706;29;8837;-67
2023/02/19 23:32:04;;;;;;;;;23.50;21.00;;;;;;;;4935468;29;8823;-67
2023/02/19 23:34:29;;;;;;;;;22.50;20.75;;;;;;;;4935500;29;8975;-68
2023/02/19 23:36:54;;;;;;;;;24.75;22.25;;;;;;;;4935628;29;8808;-68
2023/02/19 23:39:20;;;;;;;;;23.25;19.50;;;;;;;;4949914;29;8838;-68
2023/02/19 23:41:49;;;;;;;;;25.75;23.00;;;;;;;;4935323;29;8822;-67
2023/02/19 23:44:15;;;;;;;;;22.75;21.50;;;;;;;;4935308;29;8791;-67
2023/02/19 23:46:40;;;;;;;;;19.50;19.50;;;;;;;;4936143;29;11569;-68
2023/02/19 23:49:05;;;;;;;;;23.50;21.00;;;;;;;;4935409;29;9008;-66
2023/02/19 23:51:30;;;;;;;;;19.50;19.25;;;;;;;;4935091;29;8838;-68
2023/02/19 23:53:56;;;;;;;;;23.25;18.75;;;;;;;;4935099;29;8795;-66
2023/02/19 23:56:25;;;;;;;;;23.00;20.50;;;;;;;;4934781;29;8814;-68
2023/02/19 23:58:50;;;;;;;;;20.50;19.50;;;;;;;;4935119;29;8849;-68
